sensor_id;sensor_type;location;lat;lon;timestamp;temperature;humidity
66337;SHT30;53139;45.576;5.304;2022-10-29T00:00:52;16.54;79.62
66337;SHT30;53139;45.576;5.304;2022-10-29T00:03:53;16.56;79.60
66337;SHT30;53139;45.576;5.304;2022-10-29T00:06:53;16.45;80.09
66337;SHT30;53139;45.576;5.304;2022-10-29T00:09:54;16.29;80.52
66337;SHT30;53139;45.576;5.304;2022-10-29T00:12:54;16.22;80.81
66337;SHT30;53139;45.576;5.304;2022-10-29T00:15:54;16.25;80.92
66337;SHT30;53139;45.576;5.304;2022-10-29T00:18:55;16.08;81.13
66337;SHT30;53139;45.576;5.304;2022-10-29T00:21:56;16.06;81.32
66337;SHT30;53139;45.576;5.304;2022-10-29T00:24:56;16.01;81.52
66337;SHT30;53139;45.576;5.304;2022-10-29T00:27:57;15.97;81.48
66337;SHT30;53139;45.576;5.304;2022-10-29T00:31:09;15.98;81.29
66337;SHT30;53139;45.576;5.304;2022-10-29T00:34:10;15.74;81.95
66337;SHT30;53139;45.576;5.304;2022-10-29T00:37:10;15.81;82.03
66337;SHT30;53139;45.576;5.304;2022-10-29T00:40:11;15.74;82.02
66337;SHT30;53139;45.576;5.304;2022-10-29T00:43:16;16.02;81.55
66337;SHT30;53139;45.576;5.304;2022-10-29T00:46:25;16.05;81.35
66337;SHT30;53139;45.576;5.304;2022-10-29T00:49:30;16.05;80.88
66337;SHT30;53139;45.576;5.304;2022-10-29T00:52:33;16.02;81.08
66337;SHT30;53139;45.576;5.304;2022-10-29T00:55:35;16.01;80.67
66337;SHT30;53139;45.576;5.304;2022-10-29T00:58:36;16.10;80.30
66337;SHT30;53139;45.576;5.304;2022-10-29T01:01:37;15.95;80.75
66337;SHT30;53139;45.576;5.304;2022-10-29T01:04:38;16.01;80.40
66337;SHT30;53139;45.576;5.304;2022-10-29T01:07:39;15.97;80.36
66337;SHT30;53139;45.576;5.304;2022-10-29T01:17:10;15.67;81.44
66337;SHT30;53139;45.576;5.304;2022-10-29T01:31:00;15.95;80.26
66337;SHT30;53139;45.576;5.304;2022-10-29T01:34:12;15.88;80.23
66337;SHT30;53139;45.576;5.304;2022-10-29T01:41:08;15.75;80.15
66337;SHT30;53139;45.576;5.304;2022-10-29T01:47:30;15.71;79.90
66337;SHT30;53139;45.576;5.304;2022-10-29T01:50:36;15.75;79.98
66337;SHT30;53139;45.576;5.304;2022-10-29T01:53:38;15.75;79.85
66337;SHT30;53139;45.576;5.304;2022-10-29T01:56:38;15.46;80.82
66337;SHT30;53139;45.576;5.304;2022-10-29T01:59:39;15.40;81.06
66337;SHT30;53139;45.576;5.304;2022-10-29T02:03:19;15.16;81.88
66337;SHT30;53139;45.576;5.304;2022-10-29T02:06:40;14.85;83.13
66337;SHT30;53139;45.576;5.304;2022-10-29T02:09:48;14.98;82.37
66337;SHT30;53139;45.576;5.304;2022-10-29T02:12:52;15.08;81.78
66337;SHT30;53139;45.576;5.304;2022-10-29T02:15:53;14.70;83.45
66337;SHT30;53139;45.576;5.304;2022-10-29T02:18:56;14.32;84.49
66337;SHT30;53139;45.576;5.304;2022-10-29T02:21:57;14.61;83.27
66337;SHT30;53139;45.576;5.304;2022-10-29T02:24:57;14.12;85.13
66337;SHT30;53139;45.576;5.304;2022-10-29T02:27:58;13.98;84.23
66337;SHT30;53139;45.576;5.304;2022-10-29T02:30:58;13.97;85.65
66337;SHT30;53139;45.576;5.304;2022-10-29T02:33:58;13.60;86.54
66337;SHT30;53139;45.576;5.304;2022-10-29T02:36:59;13.78;86.30
66337;SHT30;53139;45.576;5.304;2022-10-29T02:39:59;13.65;86.56
66337;SHT30;53139;45.576;5.304;2022-10-29T02:42:59;13.50;87.77
66337;SHT30;53139;45.576;5.304;2022-10-29T02:46:14;13.28;86.54
66337;SHT30;53139;45.576;5.304;2022-10-29T02:49:14;13.47;88.09
66337;SHT30;53139;45.576;5.304;2022-10-29T02:52:15;13.12;87.57
66337;SHT30;53139;45.576;5.304;2022-10-29T02:55:15;13.63;86.99
66337;SHT30;53139;45.576;5.304;2022-10-29T02:58:15;13.12;88.44
66337;SHT30;53139;45.576;5.304;2022-10-29T03:01:16;13.27;88.10
66337;SHT30;53139;45.576;5.304;2022-10-29T03:04:16;13.57;87.46
66337;SHT30;53139;45.576;5.304;2022-10-29T03:07:16;13.63;86.93
66337;SHT30;53139;45.576;5.304;2022-10-29T03:10:17;14.10;85.35
66337;SHT30;53139;45.576;5.304;2022-10-29T03:13:17;13.85;86.30
66337;SHT30;53139;45.576;5.304;2022-10-29T03:16:17;14.04;85.57
66337;SHT30;53139;45.576;5.304;2022-10-29T03:19:18;13.77;86.11
66337;SHT30;53139;45.576;5.304;2022-10-29T03:22:18;13.63;86.27
66337;SHT30;53139;45.576;5.304;2022-10-29T03:25:18;13.46;86.69
66337;SHT30;53139;45.576;5.304;2022-10-29T03:28:20;13.36;87.87
66337;SHT30;53139;45.576;5.304;2022-10-29T03:31:21;13.32;87.33
66337;SHT30;53139;45.576;5.304;2022-10-29T03:34:21;13.15;88.30
66337;SHT30;53139;45.576;5.304;2022-10-29T03:37:21;12.93;89.40
66337;SHT30;53139;45.576;5.304;2022-10-29T03:40:22;13.27;87.51
66337;SHT30;53139;45.576;5.304;2022-10-29T03:43:23;13.34;87.61
66337;SHT30;53139;45.576;5.304;2022-10-29T03:46:23;13.42;87.52
66337;SHT30;53139;45.576;5.304;2022-10-29T03:49:23;13.54;86.83
66337;SHT30;53139;45.576;5.304;2022-10-29T03:52:24;13.39;87.28
66337;SHT30;53139;45.576;5.304;2022-10-29T03:55:24;14.01;85.56
66337;SHT30;53139;45.576;5.304;2022-10-29T03:58:28;14.02;85.52
66337;SHT30;53139;45.576;5.304;2022-10-29T04:01:28;14.05;85.30
66337;SHT30;53139;45.576;5.304;2022-10-29T04:04:29;14.33;84.26
66337;SHT30;53139;45.576;5.304;2022-10-29T04:07:29;14.67;82.98
66337;SHT30;53139;45.576;5.304;2022-10-29T04:10:29;14.72;82.43
66337;SHT30;53139;45.576;5.304;2022-10-29T04:13:30;15.08;81.41
66337;SHT30;53139;45.576;5.304;2022-10-29T04:16:31;14.67;82.46
66337;SHT30;53139;45.576;5.304;2022-10-29T04:19:31;14.68;82.92
66337;SHT30;53139;45.576;5.304;2022-10-29T04:22:31;15.10;81.44
66337;SHT30;53139;45.576;5.304;2022-10-29T04:25:32;15.03;81.68
66337;SHT30;53139;45.576;5.304;2022-10-29T04:28:32;14.74;82.40
66337;SHT30;53139;45.576;5.304;2022-10-29T04:31:32;15.35;80.12
66337;SHT30;53139;45.576;5.304;2022-10-29T04:34:32;14.88;81.86
66337;SHT30;53139;45.576;5.304;2022-10-29T04:37:33;15.12;80.88
66337;SHT30;53139;45.576;5.304;2022-10-29T04:40:33;15.20;80.65
66337;SHT30;53139;45.576;5.304;2022-10-29T04:43:34;15.36;79.93
66337;SHT30;53139;45.576;5.304;2022-10-29T04:46:34;15.30;79.95
66337;SHT30;53139;45.576;5.304;2022-10-29T04:49:34;15.29;80.07
66337;SHT30;53139;45.576;5.304;2022-10-29T04:52:35;15.10;80.88
66337;SHT30;53139;45.576;5.304;2022-10-29T04:55:36;15.02;81.20
66337;SHT30;53139;45.576;5.304;2022-10-29T04:58:37;15.05;80.99
66337;SHT30;53139;45.576;5.304;2022-10-29T05:01:37;15.10;80.44
66337;SHT30;53139;45.576;5.304;2022-10-29T05:04:38;14.89;81.13
66337;SHT30;53139;45.576;5.304;2022-10-29T05:07:38;15.23;79.65
66337;SHT30;53139;45.576;5.304;2022-10-29T05:10:39;14.74;81.53
66337;SHT30;53139;45.576;5.304;2022-10-29T05:13:39;14.65;81.91
66337;SHT30;53139;45.576;5.304;2022-10-29T05:16:40;14.47;82.39
66337;SHT30;53139;45.576;5.304;2022-10-29T05:19:41;14.44;82.08
66337;SHT30;53139;45.576;5.304;2022-10-29T05:22:41;14.41;82.41
66337;SHT30;53139;45.576;5.304;2022-10-29T05:25:41;14.46;81.76
66337;SHT30;53139;45.576;5.304;2022-10-29T05:28:42;14.89;80.09
66337;SHT30;53139;45.576;5.304;2022-10-29T05:31:42;14.22;82.89
66337;SHT30;53139;45.576;5.304;2022-10-29T05:34:42;14.47;81.45
66337;SHT30;53139;45.576;5.304;2022-10-29T05:37:49;14.84;80.90
66337;SHT30;53139;45.576;5.304;2022-10-29T05:40:50;14.63;81.12
66337;SHT30;53139;45.576;5.304;2022-10-29T05:43:50;14.77;80.18
66337;SHT30;53139;45.576;5.304;2022-10-29T05:46:50;14.33;82.14
66337;SHT30;53139;45.576;5.304;2022-10-29T05:49:51;14.34;81.75
66337;SHT30;53139;45.576;5.304;2022-10-29T05:53:02;14.30;82.04
66337;SHT30;53139;45.576;5.304;2022-10-29T05:56:03;14.34;81.72
66337;SHT30;53139;45.576;5.304;2022-10-29T05:59:03;14.25;82.40
66337;SHT30;53139;45.576;5.304;2022-10-29T06:02:04;14.36;81.61
66337;SHT30;53139;45.576;5.304;2022-10-29T06:05:04;14.38;81.32
66337;SHT30;53139;45.576;5.304;2022-10-29T06:08:05;14.68;80.10
66337;SHT30;53139;45.576;5.304;2022-10-29T06:11:05;14.33;81.44
66337;SHT30;53139;45.576;5.304;2022-10-29T06:14:06;14.04;82.92
66337;SHT30;53139;45.576;5.304;2022-10-29T06:17:06;14.20;81.79
66337;SHT30;53139;45.576;5.304;2022-10-29T06:20:08;14.43;80.76
66337;SHT30;53139;45.576;5.304;2022-10-29T06:23:09;14.37;80.64
66337;SHT30;53139;45.576;5.304;2022-10-29T06:26:10;14.64;79.79
66337;SHT30;53139;45.576;5.304;2022-10-29T06:29:10;14.32;81.74
66337;SHT30;53139;45.576;5.304;2022-10-29T06:32:10;14.68;79.80
66337;SHT30;53139;45.576;5.304;2022-10-29T06:35:11;14.87;79.73
66337;SHT30;53139;45.576;5.304;2022-10-29T06:38:11;14.81;79.74
66337;SHT30;53139;45.576;5.304;2022-10-29T06:41:12;15.03;79.08
66337;SHT30;53139;45.576;5.304;2022-10-29T06:44:13;15.12;78.82
66337;SHT30;53139;45.576;5.304;2022-10-29T06:47:13;15.26;78.27
66337;SHT30;53139;45.576;5.304;2022-10-29T06:50:14;15.26;78.17
66337;SHT30;53139;45.576;5.304;2022-10-29T06:53:14;15.20;78.32
66337;SHT30;53139;45.576;5.304;2022-10-29T06:56:15;15.16;78.63
66337;SHT30;53139;45.576;5.304;2022-10-29T06:59:15;15.29;78.13
66337;SHT30;53139;45.576;5.304;2022-10-29T07:02:18;15.29;78.60
66337;SHT30;53139;45.576;5.304;2022-10-29T07:05:19;15.50;77.48
66337;SHT30;53139;45.576;5.304;2022-10-29T07:08:20;15.67;76.83
66337;SHT30;53139;45.576;5.304;2022-10-29T07:11:20;15.84;75.97
66337;SHT30;53139;45.576;5.304;2022-10-29T07:14:21;15.81;76.22
66337;SHT30;53139;45.576;5.304;2022-10-29T07:17:21;15.98;75.59
66337;SHT30;53139;45.576;5.304;2022-10-29T07:20:22;16.09;75.25
